sensor_id;sensor_type;location;lat;lon;timestamp;P1;durP1;ratioP1;P2;durP2;ratioP2
71080;SDS011;58740;50.672;18.690;2022-12-07T00:01:45;18.90;;;12.20;;
71080;SDS011;58740;50.672;18.690;2022-12-07T00:04:16;17.50;;;11.30;;
71080;SDS011;58740;50.672;18.690;2022-12-07T00:06:46;24.50;;;14.30;;
71080;SDS011;58740;50.672;18.690;2022-12-07T00:09:19;25.90;;;13.10;;
71080;SDS011;58740;50.672;18.690;2022-12-07T00:11:51;23.30;;;12.60;;
71080;SDS011;58740;50.672;18.690;2022-12-07T00:14:19;21.80;;;12.30;;
71080;SDS011;58740;50.672;18.690;2022-12-07T00:16:51;17.80;;;10.90;;
71080;SDS011;58740;50.672;18.690;2022-12-07T00:19:19;16.20;;;9.90;;
71080;SDS011;58740;50.672;18.690;2022-12-07T00:21:47;16.80;;;9.60;;
71080;SDS011;58740;50.672;18.690;2022-12-07T00:24:15;21.80;;;11.50;;
71080;SDS011;58740;50.672;18.690;2022-12-07T00:26:43;25.20;;;14.20;;
71080;SDS011;58740;50.672;18.690;2022-12-07T00:29:18;25.60;;;14.20;;
71080;SDS011;58740;50.672;18.690;2022-12-07T00:31:47;27.70;;;13.80;;
71080;SDS011;58740;50.672;18.690;2022-12-07T00:34:17;21.70;;;12.00;;
71080;SDS011;58740;50.672;18.690;2022-12-07T00:36:47;20.70;;;11.30;;
71080;SDS011;58740;50.672;18.690;2022-12-07T00:39:16;21.70;;;11.70;;
71080;SDS011;58740;50.672;18.690;2022-12-07T00:41:44;14.60;;;7.50;;
71080;SDS011;58740;50.672;18.690;2022-12-07T00:44:11;19.20;;;10.10;;
71080;SDS011;58740;50.672;18.690;2022-12-07T00:46:39;15.40;;;8.90;;
71080;SDS011;58740;50.672;18.690;2022-12-07T00:49:07;25.40;;;13.50;;
71080;SDS011;58740;50.672;18.690;2022-12-07T00:51:35;22.50;;;12.10;;
71080;SDS011;58740;50.672;18.690;2022-12-07T00:54:03;21.50;;;12.30;;
71080;SDS011;58740;50.672;18.690;2022-12-07T00:56:31;18.80;;;10.80;;
71080;SDS011;58740;50.672;18.690;2022-12-07T00:59:03;23.90;;;11.20;;
71080;SDS011;58740;50.672;18.690;2022-12-07T01:01:34;19.60;;;10.50;;
71080;SDS011;58740;50.672;18.690;2022-12-07T01:04:03;19.70;;;10.40;;
71080;SDS011;58740;50.672;18.690;2022-12-07T01:06:31;22.50;;;11.30;;
71080;SDS011;58740;50.672;18.690;2022-12-07T01:08:59;19.30;;;10.20;;
71080;SDS011;58740;50.672;18.690;2022-12-07T01:11:29;21.30;;;11.50;;
71080;SDS011;58740;50.672;18.690;2022-12-07T01:13:58;22.70;;;12.70;;
71080;SDS011;58740;50.672;18.690;2022-12-07T01:16:30;22.00;;;12.40;;
71080;SDS011;58740;50.672;18.690;2022-12-07T01:18:59;21.80;;;11.60;;
71080;SDS011;58740;50.672;18.690;2022-12-07T01:21:31;18.60;;;10.90;;
71080;SDS011;58740;50.672;18.690;2022-12-07T01:24:05;17.50;;;10.40;;
71080;SDS011;58740;50.672;18.690;2022-12-07T01:26:34;21.40;;;12.00;;
71080;SDS011;58740;50.672;18.690;2022-12-07T01:29:02;18.60;;;9.80;;
71080;SDS011;58740;50.672;18.690;2022-12-07T01:31:30;17.70;;;9.70;;
71080;SDS011;58740;50.672;18.690;2022-12-07T01:33:59;22.50;;;12.30;;
71080;SDS011;58740;50.672;18.690;2022-12-07T01:36:33;22.60;;;12.80;;
71080;SDS011;58740;50.672;18.690;2022-12-07T01:39:05;19.80;;;11.30;;
71080;SDS011;58740;50.672;18.690;2022-12-07T01:41:37;24.70;;;11.50;;
71080;SDS011;58740;50.672;18.690;2022-12-07T01:44:21;18.70;;;10.80;;
71080;SDS011;58740;50.672;18.690;2022-12-07T01:46:54;21.60;;;10.70;;
71080;SDS011;58740;50.672;18.690;2022-12-07T01:49:40;27.70;;;11.70;;
71080;SDS011;58740;50.672;18.690;2022-12-07T01:52:18;24.70;;;12.50;;
71080;SDS011;58740;50.672;18.690;2022-12-07T01:54:59;18.80;;;11.40;;
71080;SDS011;58740;50.672;18.690;2022-12-07T01:57:33;24.00;;;13.60;;
71080;SDS011;58740;50.672;18.690;2022-12-07T02:00:07;27.70;;;14.40;;
71080;SDS011;58740;50.672;18.690;2022-12-07T02:02:38;21.20;;;13.10;;
71080;SDS011;58740;50.672;18.690;2022-12-07T02:05:11;19.90;;;12.10;;
71080;SDS011;58740;50.672;18.690;2022-12-07T02:07:40;19.60;;;10.60;;
71080;SDS011;58740;50.672;18.690;2022-12-07T02:10:18;23.30;;;13.10;;
71080;SDS011;58740;50.672;18.690;2022-12-07T02:13:01;21.90;;;13.10;;
71080;SDS011;58740;50.672;18.690;2022-12-07T02:21:50;23.70;;;12.40;;
71080;SDS011;58740;50.672;18.690;2022-12-07T02:24:31;23.40;;;12.30;;
71080;SDS011;58740;50.672;18.690;2022-12-07T02:27:29;22.70;;;12.60;;
71080;SDS011;58740;50.672;18.690;2022-12-07T02:30:20;20.40;;;12.10;;
71080;SDS011;58740;50.672;18.690;2022-12-07T02:35:28;18.50;;;10.80;;
71080;SDS011;58740;50.672;18.690;2022-12-07T02:41:04;24.40;;;14.10;;
71080;SDS011;58740;50.672;18.690;2022-12-07T02:43:39;24.00;;;9.90;;
71080;SDS011;58740;50.672;18.690;2022-12-07T02:46:21;18.40;;;9.80;;
71080;SDS011;58740;50.672;18.690;2022-12-07T02:48:52;19.80;;;10.50;;
71080;SDS011;58740;50.672;18.690;2022-12-07T02:51:22;21.30;;;11.80;;
71080;SDS011;58740;50.672;18.690;2022-12-07T02:53:50;16.00;;;9.20;;
71080;SDS011;58740;50.672;18.690;2022-12-07T03:02:18;20.40;;;11.10;;
71080;SDS011;58740;50.672;18.690;2022-12-07T03:08:10;22.00;;;11.30;;
71080;SDS011;58740;50.672;18.690;2022-12-07T03:10:59;21.70;;;12.60;;
71080;SDS011;58740;50.672;18.690;2022-12-07T03:13:41;27.40;;;17.30;;
71080;SDS011;58740;50.672;18.690;2022-12-07T03:16:20;25.40;;;15.70;;
71080;SDS011;58740;50.672;18.690;2022-12-07T03:18:56;24.50;;;14.30;;
71080;SDS011;58740;50.672;18.690;2022-12-07T03:21:33;23.00;;;11.00;;
71080;SDS011;58740;50.672;18.690;2022-12-07T03:24:21;22.40;;;11.80;;
71080;SDS011;58740;50.672;18.690;2022-12-07T03:26:56;20.90;;;10.90;;
71080;SDS011;58740;50.672;18.690;2022-12-07T03:29:54;15.10;;;8.40;;
71080;SDS011;58740;50.672;18.690;2022-12-07T03:32:37;16.00;;;7.60;;
71080;SDS011;58740;50.672;18.690;2022-12-07T03:35:29;17.00;;;8.20;;
71080;SDS011;58740;50.672;18.690;2022-12-07T03:38:33;16.10;;;7.70;;
71080;SDS011;58740;50.672;18.690;2022-12-07T03:41:07;13.60;;;6.70;;
71080;SDS011;58740;50.672;18.690;2022-12-07T03:43:39;10.70;;;6.40;;
71080;SDS011;58740;50.672;18.690;2022-12-07T03:46:20;17.10;;;9.40;;
71080;SDS011;58740;50.672;18.690;2022-12-07T03:49:20;18.00;;;10.20;;
71080;SDS011;58740;50.672;18.690;2022-12-07T03:57:35;13.30;;;7.70;;
71080;SDS011;58740;50.672;18.690;2022-12-07T04:00:06;11.90;;;6.10;;
71080;SDS011;58740;50.672;18.690;2022-12-07T04:02:35;13.30;;;6.50;;
71080;SDS011;58740;50.672;18.690;2022-12-07T04:05:04;15.40;;;7.50;;
71080;SDS011;58740;50.672;18.690;2022-12-07T04:07:33;15.00;;;7.90;;
71080;SDS011;58740;50.672;18.690;2022-12-07T04:10:01;12.70;;;6.70;;
71080;SDS011;58740;50.672;18.690;2022-12-07T04:12:31;15.90;;;7.50;;
71080;SDS011;58740;50.672;18.690;2022-12-07T04:14:58;17.40;;;8.00;;
71080;SDS011;58740;50.672;18.690;2022-12-07T04:17:26;14.60;;;7.40;;
71080;SDS011;58740;50.672;18.690;2022-12-07T04:19:54;13.90;;;7.60;;
71080;SDS011;58740;50.672;18.690;2022-12-07T04:22:22;14.40;;;6.60;;
71080;SDS011;58740;50.672;18.690;2022-12-07T04:24:49;13.60;;;6.50;;
71080;SDS011;58740;50.672;18.690;2022-12-07T04:27:17;12.90;;;5.80;;
71080;SDS011;58740;50.672;18.690;2022-12-07T04:29:45;17.30;;;8.80;;
71080;SDS011;58740;50.672;18.690;2022-12-07T04:32:12;14.80;;;8.70;;
71080;SDS011;58740;50.672;18.690;2022-12-07T04:34:40;16.90;;;8.40;;
71080;SDS011;58740;50.672;18.690;2022-12-07T04:37:08;12.70;;;7.20;;
71080;SDS011;58740;50.672;18.690;2022-12-07T04:39:36;11.50;;;5.80;;
71080;SDS011;58740;50.672;18.690;2022-12-07T04:42:03;11.60;;;6.30;;
71080;SDS011;58740;50.672;18.690;2022-12-07T04:44:31;13.40;;;6.60;;
71080;SDS011;58740;50.672;18.690;2022-12-07T04:46:59;11.10;;;5.80;;
71080;SDS011;58740;50.672;18.690;2022-12-07T04:49:27;12.20;;;6.20;;
71080;SDS011;58740;50.672;18.690;2022-12-07T04:51:55;13.10;;;6.70;;
71080;SDS011;58740;50.672;18.690;2022-12-07T04:54:22;13.90;;;7.30;;
71080;SDS011;58740;50.672;18.690;2022-12-07T04:56:50;16.10;;;7.40;;
71080;SDS011;58740;50.672;18.690;2022-12-07T04:59:18;12.90;;;6.70;;
71080;SDS011;58740;50.672;18.690;2022-12-07T05:01:46;10.90;;;5.50;;
71080;SDS011;58740;50.672;18.690;2022-12-07T05:04:13;12.70;;;5.70;;
71080;SDS011;58740;50.672;18.690;2022-12-07T05:06:44;12.50;;;6.20;;
71080;SDS011;58740;50.672;18.690;2022-12-07T05:09:11;11.20;;;5.70;;
71080;SDS011;58740;50.672;18.690;2022-12-07T05:11:39;13.70;;;7.30;;
71080;SDS011;58740;50.672;18.690;2022-12-07T05:14:12;15.10;;;7.50;;
71080;SDS011;58740;50.672;18.690;2022-12-07T05:16:47;17.40;;;7.80;;
71080;SDS011;58740;50.672;18.690;2022-12-07T05:19:17;14.40;;;7.50;;
71080;SDS011;58740;50.672;18.690;2022-12-07T05:21:46;10.10;;;6.30;;
71080;SDS011;58740;50.672;18.690;2022-12-07T05:24:15;10.80;;;4.70;;
71080;SDS011;58740;50.672;18.690;2022-12-07T05:26:44;11.70;;;5.50;;
71080;SDS011;58740;50.672;18.690;2022-12-07T05:29:16;11.20;;;5.20;;
71080;SDS011;58740;50.672;18.690;2022-12-07T05:31:44;14.80;;;7.50;;
71080;SDS011;58740;50.672;18.690;2022-12-07T05:34:13;17.70;;;9.50;;
71080;SDS011;58740;50.672;18.690;2022-12-07T05:36:40;14.40;;;7.10;;
71080;SDS011;58740;50.672;18.690;2022-12-07T05:39:08;14.50;;;7.50;;
71080;SDS011;58740;50.672;18.690;2022-12-07T05:41:36;12.00;;;5.70;;
71080;SDS011;58740;50.672;18.690;2022-12-07T05:44:23;11.00;;;5.70;;
71080;SDS011;58740;50.672;18.690;2022-12-07T05:46:50;8.80;;;4.00;;
71080;SDS011;58740;50.672;18.690;2022-12-07T05:49:18;10.30;;;5.10;;
71080;SDS011;58740;50.672;18.690;2022-12-07T05:51:46;9.30;;;4.70;;
71080;SDS011;58740;50.672;18.690;2022-12-07T05:54:13;12.10;;;4.70;;
71080;SDS011;58740;50.672;18.690;2022-12-07T05:56:41;10.40;;;5.10;;
71080;SDS011;58740;50.672;18.690;2022-12-07T05:59:09;15.20;;;6.50;;
71080;SDS011;58740;50.672;18.690;2022-12-07T06:02:00;16.70;;;5.70;;
71080;SDS011;58740;50.672;18.690;2022-12-07T06:04:33;15.90;;;4.70;;
71080;SDS011;58740;50.672;18.690;2022-12-07T06:07:03;13.10;;;5.10;;
71080;SDS011;58740;50.672;18.690;2022-12-07T06:09:32;14.80;;;5.00;;
71080;SDS011;58740;50.672;18.690;2022-12-07T06:12:02;11.50;;;4.20;;
71080;SDS011;58740;50.672;18.690;2022-12-07T06:14:51;10.60;;;4.40;;
71080;SDS011;58740;50.672;18.690;2022-12-07T06:17:19;11.50;;;4.90;;
71080;SDS011;58740;50.672;18.690;2022-12-07T06:19:46;8.60;;;4.00;;
71080;SDS011;58740;50.672;18.690;2022-12-07T06:22:14;9.10;;;4.10;;
71080;SDS011;58740;50.672;18.690;2022-12-07T06:24:43;7.90;;;3.90;;
71080;SDS011;58740;50.672;18.690;2022-12-07T06:27:11;7.60;;;3.20;;
71080;SDS011;58740;50.672;18.690;2022-12-07T06:29:40;8.00;;;3.90;;
71080;SDS011;58740;50.672;18.690;2022-12-07T06:32:08;8.70;;;4.00;;
71080;SDS011;58740;50.672;18.690;2022-12-07T06:34:36;8.80;;;3.90;;
71080;SDS011;58740;50.672;18.690;2022-12-07T06:37:04;7.10;;;3.00;;
71080;SDS011;58740;50.672;18.690;2022-12-07T06:39:32;8.00;;;3.50;;
71080;SDS011;58740;50.672;18.690;2022-12-07T06:41:59;8.20;;;3.50;;
71080;SDS011;58740;50.672;18.690;2022-12-07T06:44:27;12.20;;;4.70;;
71080;SDS011;58740;50.672;18.690;2022-12-07T06:46:55;15.90;;;8.70;;
71080;SDS011;58740;50.672;18.690;2022-12-07T06:49:42;10.40;;;5.60;;
71080;SDS011;58740;50.672;18.690;2022-12-07T06:52:10;9.20;;;4.40;;
71080;SDS011;58740;50.672;18.690;2022-12-07T06:54:38;8.30;;;4.20;;
71080;SDS011;58740;50.672;18.690;2022-12-07T06:57:06;7.90;;;3.90;;
71080;SDS011;58740;50.672;18.690;2022-12-07T06:59:33;7.30;;;3.80;;
71080;SDS011;58740;50.672;18.690;2022-12-07T07:02:01;7.20;;;3.80;;
71080;SDS011;58740;50.672;18.690;2022-12-07T07:04:29;8.40;;;4.30;;
71080;SDS011;58740;50.672;18.690;2022-12-07T07:06:57;10.00;;;4.80;;
71080;SDS011;58740;50.672;18.690;2022-12-07T07:09:26;8.60;;;4.60;;
71080;SDS011;58740;50.672;18.690;2022-12-07T07:11:55;7.40;;;4.30;;
71080;SDS011;58740;50.672;18.690;2022-12-07T07:14:22;7.10;;;3.70;;
71080;SDS011;58740;50.672;18.690;2022-12-07T07:16:50;7.90;;;4.20;;
71080;SDS011;58740;50.672;18.690;2022-12-07T07:19:18;7.40;;;3.60;;
71080;SDS011;58740;50.672;18.690;2022-12-07T07:21:46;6.70;;;3.40;;
71080;SDS011;58740;50.672;18.690;2022-12-07T07:24:14;7.60;;;3.60;;
71080;SDS011;58740;50.672;18.690;2022-12-07T07:26:42;14.20;;;6.70;;
71080;SDS011;58740;50.672;18.690;2022-12-07T07:29:09;9.20;;;5.00;;
71080;SDS011;58740;50.672;18.690;2022-12-07T07:31:37;9.70;;;5.00;;
71080;SDS011;58740;50.672;18.690;2022-12-07T07:34:05;11.20;;;5.00;;
71080;SDS011;58740;50.672;18.690;2022-12-07T07:36:32;9.80;;;4.80;;
71080;SDS011;58740;50.672;18.690;2022-12-07T07:39:00;7.60;;;5.00;;
71080;SDS011;58740;50.672;18.690;2022-12-07T07:41:28;8.30;;;4.50;;
71080;SDS011;58740;50.672;18.690;2022-12-07T07:43:55;9.10;;;4.80;;
71080;SDS011;58740;50.672;18.690;2022-12-07T07:46:23;5.80;;;2.80;;
71080;SDS011;58740;50.672;18.690;2022-12-07T07:48:51;12.10;;;6.00;;
71080;SDS011;58740;50.672;18.690;2022-12-07T07:51:19;10.70;;;5.30;;
71080;SDS011;58740;50.672;18.690;2022-12-07T07:53:47;11.60;;;6.20;;
71080;SDS011;58740;50.672;18.690;2022-12-07T07:56:14;8.30;;;5.10;;
71080;SDS011;58740;50.672;18.690;2022-12-07T07:58:42;10.80;;;6.60;;
71080;SDS011;58740;50.672;18.690;2022-12-07T08:01:10;9.30;;;6.20;;
71080;SDS011;58740;50.672;18.690;2022-12-07T08:03:38;11.10;;;7.10;;
71080;SDS011;58740;50.672;18.690;2022-12-07T08:06:06;6.20;;;4.20;;
71080;SDS011;58740;50.672;18.690;2022-12-07T08:08:34;10.40;;;6.90;;
71080;SDS011;58740;50.672;18.690;2022-12-07T08:11:05;9.90;;;5.40;;
71080;SDS011;58740;50.672;18.690;2022-12-07T08:13:35;15.70;;;8.70;;
71080;SDS011;58740;50.672;18.690;2022-12-07T08:16:08;20.50;;;9.00;;
71080;SDS011;58740;50.672;18.690;2022-12-07T08:18:39;14.70;;;6.90;;
71080;SDS011;58740;50.672;18.690;2022-12-07T08:21:13;15.50;;;7.80;;
71080;SDS011;58740;50.672;18.690;2022-12-07T08:23:42;12.90;;;6.10;;
71080;SDS011;58740;50.672;18.690;2022-12-07T08:26:14;10.10;;;5.70;;
71080;SDS011;58740;50.672;18.690;2022-12-07T08:28:43;11.30;;;5.60;;
71080;SDS011;58740;50.672;18.690;2022-12-07T08:31:15;14.30;;;7.20;;
71080;SDS011;58740;50.672;18.690;2022-12-07T08:33:46;18.00;;;10.20;;
71080;SDS011;58740;50.672;18.690;2022-12-07T08:36:15;14.30;;;8.10;;
71080;SDS011;58740;50.672;18.690;2022-12-07T08:38:44;19.60;;;9.80;;
71080;SDS011;58740;50.672;18.690;2022-12-07T08:41:32;16.10;;;8.00;;
71080;SDS011;58740;50.672;18.690;2022-12-07T08:44:01;10.70;;;5.90;;
71080;SDS011;58740;50.672;18.690;2022-12-07T08:46:42;9.80;;;4.70;;
71080;SDS011;58740;50.672;18.690;2022-12-07T08:49:38;12.00;;;6.10;;
71080;SDS011;58740;50.672;18.690;2022-12-07T08:52:07;12.40;;;5.90;;
71080;SDS011;58740;50.672;18.690;2022-12-07T08:54:38;11.90;;;6.20;;
71080;SDS011;58740;50.672;18.690;2022-12-07T08:57:08;22.80;;;10.70;;
71080;SDS011;58740;50.672;18.690;2022-12-07T08:59:37;17.40;;;9.20;;
71080;SDS011;58740;50.672;18.690;2022-12-07T09:02:05;18.10;;;8.50;;
71080;SDS011;58740;50.672;18.690;2022-12-07T09:04:34;19.60;;;9.20;;
71080;SDS011;58740;50.672;18.690;2022-12-07T09:07:02;21.70;;;12.20;;
71080;SDS011;58740;50.672;18.690;2022-12-07T09:09:32;21.20;;;11.20;;
71080;SDS011;58740;50.672;18.690;2022-12-07T09:12:00;26.80;;;11.00;;
71080;SDS011;58740;50.672;18.690;2022-12-07T09:14:28;14.00;;;7.70;;
71080;SDS011;58740;50.672;18.690;2022-12-07T09:17:08;19.10;;;10.40;;
71080;SDS011;58740;50.672;18.690;2022-12-07T09:19:38;20.50;;;9.90;;
71080;SDS011;58740;50.672;18.690;2022-12-07T09:22:06;18.40;;;9.10;;
71080;SDS011;58740;50.672;18.690;2022-12-07T09:24:35;16.10;;;8.30;;
71080;SDS011;58740;50.672;18.690;2022-12-07T09:27:02;27.20;;;12.20;;
71080;SDS011;58740;50.672;18.690;2022-12-07T09:29:30;26.70;;;14.20;;
71080;SDS011;58740;50.672;18.690;2022-12-07T09:31:58;20.70;;;12.00;;
71080;SDS011;58740;50.672;18.690;2022-12-07T09:34:26;18.80;;;10.60;;
71080;SDS011;58740;50.672;18.690;2022-12-07T09:36:54;22.60;;;12.10;;
71080;SDS011;58740;50.672;18.690;2022-12-07T09:39:21;25.20;;;12.40;;
71080;SDS011;58740;50.672;18.690;2022-12-07T09:41:49;17.90;;;10.10;;
71080;SDS011;58740;50.672;18.690;2022-12-07T09:44:24;17.30;;;9.10;;
71080;SDS011;58740;50.672;18.690;2022-12-07T09:46:54;15.60;;;8.60;;
71080;SDS011;58740;50.672;18.690;2022-12-07T09:49:25;18.20;;;9.10;;
71080;SDS011;58740;50.672;18.690;2022-12-07T09:52:19;14.60;;;8.20;;
71080;SDS011;58740;50.672;18.690;2022-12-07T09:54:52;13.20;;;6.50;;
71080;SDS011;58740;50.672;18.690;2022-12-07T09:57:29;16.00;;;7.80;;
71080;SDS011;58740;50.672;18.690;2022-12-07T10:00:02;14.60;;;8.60;;
71080;SDS011;58740;50.672;18.690;2022-12-07T10:02:42;13.50;;;7.00;;
71080;SDS011;58740;50.672;18.690;2022-12-07T10:05:38;11.80;;;5.70;;
71080;SDS011;58740;50.672;18.690;2022-12-07T10:08:12;16.50;;;7.30;;
71080;SDS011;58740;50.672;18.690;2022-12-07T10:10:41;12.60;;;6.40;;
71080;SDS011;58740;50.672;18.690;2022-12-07T10:13:14;15.00;;;7.20;;
71080;SDS011;58740;50.672;18.690;2022-12-07T10:15:54;14.90;;;6.60;;
71080;SDS011;58740;50.672;18.690;2022-12-07T10:18:39;20.60;;;9.40;;
71080;SDS011;58740;50.672;18.690;2022-12-07T10:23:58;19.10;;;8.20;;
71080;SDS011;58740;50.672;18.690;2022-12-07T10:26:36;17.20;;;7.70;;
71080;SDS011;58740;50.672;18.690;2022-12-07T10:29:22;15.90;;;8.40;;
71080;SDS011;58740;50.672;18.690;2022-12-07T10:32:03;17.10;;;8.20;;
71080;SDS011;58740;50.672;18.690;2022-12-07T10:35:17;15.00;;;8.70;;
71080;SDS011;58740;50.672;18.690;2022-12-07T10:37:46;15.30;;;6.20;;
71080;SDS011;58740;50.672;18.690;2022-12-07T10:40:33;14.40;;;7.00;;
71080;SDS011;58740;50.672;18.690;2022-12-07T10:43:12;20.40;;;10.60;;
71080;SDS011;58740;50.672;18.690;2022-12-07T10:51:48;13.90;;;8.60;;
71080;SDS011;58740;50.672;18.690;2022-12-07T10:57:39;17.90;;;8.30;;
71080;SDS011;58740;50.672;18.690;2022-12-07T11:17:19;28.30;;;14.10;;
71080;SDS011;58740;50.672;18.690;2022-12-07T11:20:19;26.10;;;16.20;;
71080;SDS011;58740;50.672;18.690;2022-12-07T11:26:24;20.30;;;10.60;;
71080;SDS011;58740;50.672;18.690;2022-12-07T11:38:13;13.80;;;7.60;;
71080;SDS011;58740;50.672;18.690;2022-12-07T11:40:54;23.00;;;12.10;;
71080;SDS011;58740;50.672;18.690;2022-12-07T11:47:28;25.60;;;13.40;;
71080;SDS011;58740;50.672;18.690;2022-12-07T11:53:18;26.80;;;11.90;;
71080;SDS011;58740;50.672;18.690;2022-12-07T11:55:57;20.70;;;9.20;;
71080;SDS011;58740;50.672;18.690;2022-12-07T12:02:02;31.90;;;13.20;;
71080;SDS011;58740;50.672;18.690;2022-12-07T12:05:25;26.10;;;12.90;;
71080;SDS011;58740;50.672;18.690;2022-12-07T12:08:30;27.60;;;14.20;;
71080;SDS011;58740;50.672;18.690;2022-12-07T12:14:53;31.00;;;16.20;;
71080;SDS011;58740;50.672;18.690;2022-12-07T12:18:22;20.80;;;10.80;;
71080;SDS011;58740;50.672;18.690;2022-12-07T12:21:14;25.70;;;13.00;;
71080;SDS011;58740;50.672;18.690;2022-12-07T12:24:11;25.70;;;13.30;;
71080;SDS011;58740;50.672;18.690;2022-12-07T12:26:52;27.10;;;12.10;;
71080;SDS011;58740;50.672;18.690;2022-12-07T12:29:57;24.10;;;12.40;;
71080;SDS011;58740;50.672;18.690;2022-12-07T12:32:48;31.20;;;17.10;;
71080;SDS011;58740;50.672;18.690;2022-12-07T12:35:32;33.50;;;16.00;;
71080;SDS011;58740;50.672;18.690;2022-12-07T12:38:31;24.30;;;12.40;;
71080;SDS011;58740;50.672;18.690;2022-12-07T12:41:01;23.90;;;11.80;;
71080;SDS011;58740;50.672;18.690;2022-12-07T12:43:45;25.90;;;13.30;;
71080;SDS011;58740;50.672;18.690;2022-12-07T12:51:45;20.30;;;10.00;;
71080;SDS011;58740;50.672;18.690;2022-12-07T12:54:20;21.10;;;11.20;;
71080;SDS011;58740;50.672;18.690;2022-12-07T12:57:24;29.00;;;15.00;;
71080;SDS011;58740;50.672;18.690;2022-12-07T12:59:58;29.20;;;15.00;;
71080;SDS011;58740;50.672;18.690;2022-12-07T13:02:28;23.20;;;12.90;;
71080;SDS011;58740;50.672;18.690;2022-12-07T13:13:25;23.90;;;13.20;;
71080;SDS011;58740;50.672;18.690;2022-12-07T13:18:37;17.20;;;8.80;;
71080;SDS011;58740;50.672;18.690;2022-12-07T13:26:23;12.50;;;6.00;;
71080;SDS011;58740;50.672;18.690;2022-12-07T13:29:12;20.60;;;9.80;;
71080;SDS011;58740;50.672;18.690;2022-12-07T13:31:44;14.20;;;6.80;;
71080;SDS011;58740;50.672;18.690;2022-12-07T13:34:34;16.80;;;7.30;;
71080;SDS011;58740;50.672;18.690;2022-12-07T13:37:21;12.80;;;7.30;;
71080;SDS011;58740;50.672;18.690;2022-12-07T13:40:19;15.00;;;7.50;;
71080;SDS011;58740;50.672;18.690;2022-12-07T13:42:57;17.30;;;8.50;;
71080;SDS011;58740;50.672;18.690;2022-12-07T13:45:32;17.40;;;8.60;;
71080;SDS011;58740;50.672;18.690;2022-12-07T13:51:03;26.60;;;12.90;;
71080;SDS011;58740;50.672;18.690;2022-12-07T13:53:31;25.30;;;12.70;;
71080;SDS011;58740;50.672;18.690;2022-12-07T13:56:00;27.20;;;13.00;;
71080;SDS011;58740;50.672;18.690;2022-12-07T13:58:31;26.90;;;13.90;;
71080;SDS011;58740;50.672;18.690;2022-12-07T14:01:00;34.50;;;15.90;;
71080;SDS011;58740;50.672;18.690;2022-12-07T14:03:33;29.90;;;14.50;;
71080;SDS011;58740;50.672;18.690;2022-12-07T14:06:27;29.50;;;14.60;;
71080;SDS011;58740;50.672;18.690;2022-12-07T14:09:17;28.50;;;15.90;;
71080;SDS011;58740;50.672;18.690;2022-12-07T14:11:47;34.60;;;17.10;;
71080;SDS011;58740;50.672;18.690;2022-12-07T14:14:27;28.20;;;14.90;;
71080;SDS011;58740;50.672;18.690;2022-12-07T14:17:15;23.10;;;15.20;;
71080;SDS011;58740;50.672;18.690;2022-12-07T14:19:51;22.10;;;13.80;;
71080;SDS011;58740;50.672;18.690;2022-12-07T14:22:32;20.10;;;12.40;;
71080;SDS011;58740;50.672;18.690;2022-12-07T14:25:16;25.40;;;15.30;;
71080;SDS011;58740;50.672;18.690;2022-12-07T14:27:59;22.70;;;13.90;;
71080;SDS011;58740;50.672;18.690;2022-12-07T14:30:32;20.40;;;11.10;;
71080;SDS011;58740;50.672;18.690;2022-12-07T14:33:08;22.10;;;12.30;;
71080;SDS011;58740;50.672;18.690;2022-12-07T14:35:37;21.90;;;11.00;;
71080;SDS011;58740;50.672;18.690;2022-12-07T14:38:07;19.10;;;10.60;;
71080;SDS011;58740;50.672;18.690;2022-12-07T14:40:36;16.80;;;9.10;;
71080;SDS011;58740;50.672;18.690;2022-12-07T14:43:08;14.40;;;7.30;;
71080;SDS011;58740;50.672;18.690;2022-12-07T14:45:37;13.10;;;6.80;;
71080;SDS011;58740;50.672;18.690;2022-12-07T14:48:11;13.60;;;7.30;;
71080;SDS011;58740;50.672;18.690;2022-12-07T14:51:00;13.90;;;6.10;;
71080;SDS011;58740;50.672;18.690;2022-12-07T14:53:50;15.20;;;7.20;;
71080;SDS011;58740;50.672;18.690;2022-12-07T14:56:25;17.00;;;8.30;;
71080;SDS011;58740;50.672;18.690;2022-12-07T14:58:53;22.30;;;10.60;;
71080;SDS011;58740;50.672;18.690;2022-12-07T15:01:21;33.90;;;20.30;;
71080;SDS011;58740;50.672;18.690;2022-12-07T15:03:49;55.40;;;33.80;;
71080;SDS011;58740;50.672;18.690;2022-12-07T15:06:18;43.80;;;25.60;;
71080;SDS011;58740;50.672;18.690;2022-12-07T15:08:46;33.70;;;20.00;;
71080;SDS011;58740;50.672;18.690;2022-12-07T15:11:16;23.50;;;13.80;;
71080;SDS011;58740;50.672;18.690;2022-12-07T15:13:45;23.60;;;13.70;;
71080;SDS011;58740;50.672;18.690;2022-12-07T15:16:31;25.10;;;14.40;;
71080;SDS011;58740;50.672;18.690;2022-12-07T15:19:21;24.40;;;14.60;;
71080;SDS011;58740;50.672;18.690;2022-12-07T15:21:57;24.30;;;13.30;;
71080;SDS011;58740;50.672;18.690;2022-12-07T15:24:26;19.60;;;10.70;;
71080;SDS011;58740;50.672;18.690;2022-12-07T15:26:54;16.00;;;9.80;;
71080;SDS011;58740;50.672;18.690;2022-12-07T15:29:22;17.40;;;10.10;;
71080;SDS011;58740;50.672;18.690;2022-12-07T15:31:51;21.70;;;11.00;;
71080;SDS011;58740;50.672;18.690;2022-12-07T15:34:27;31.50;;;18.00;;
71080;SDS011;58740;50.672;18.690;2022-12-07T15:37:04;28.20;;;15.70;;
71080;SDS011;58740;50.672;18.690;2022-12-07T15:39:33;26.30;;;13.50;;
71080;SDS011;58740;50.672;18.690;2022-12-07T15:42:01;24.00;;;11.00;;
71080;SDS011;58740;50.672;18.690;2022-12-07T15:44:29;20.60;;;10.00;;
71080;SDS011;58740;50.672;18.690;2022-12-07T15:47:16;20.40;;;8.70;;
71080;SDS011;58740;50.672;18.690;2022-12-07T15:49:44;23.50;;;11.90;;
71080;SDS011;58740;50.672;18.690;2022-12-07T15:52:12;23.70;;;12.20;;
71080;SDS011;58740;50.672;18.690;2022-12-07T15:54:40;20.40;;;11.10;;
71080;SDS011;58740;50.672;18.690;2022-12-07T15:57:09;26.70;;;13.80;;
71080;SDS011;58740;50.672;18.690;2022-12-07T15:59:37;25.50;;;11.70;;
71080;SDS011;58740;50.672;18.690;2022-12-07T16:02:04;19.20;;;9.70;;
71080;SDS011;58740;50.672;18.690;2022-12-07T16:04:32;24.10;;;12.70;;
71080;SDS011;58740;50.672;18.690;2022-12-07T16:07:01;22.40;;;12.10;;
71080;SDS011;58740;50.672;18.690;2022-12-07T16:09:29;22.50;;;12.10;;
71080;SDS011;58740;50.672;18.690;2022-12-07T16:11:57;22.50;;;10.60;;
71080;SDS011;58740;50.672;18.690;2022-12-07T16:14:24;19.50;;;10.30;;
71080;SDS011;58740;50.672;18.690;2022-12-07T16:16:53;32.00;;;14.30;;
71080;SDS011;58740;50.672;18.690;2022-12-07T16:19:21;38.60;;;20.20;;
71080;SDS011;58740;50.672;18.690;2022-12-07T16:21:49;42.80;;;21.10;;
71080;SDS011;58740;50.672;18.690;2022-12-07T16:24:17;28.00;;;15.00;;
71080;SDS011;58740;50.672;18.690;2022-12-07T16:26:45;27.00;;;13.00;;
71080;SDS011;58740;50.672;18.690;2022-12-07T16:29:19;24.50;;;13.80;;
71080;SDS011;58740;50.672;18.690;2022-12-07T16:31:48;32.20;;;14.60;;
71080;SDS011;58740;50.672;18.690;2022-12-07T16:34:17;33.80;;;15.40;;
71080;SDS011;58740;50.672;18.690;2022-12-07T16:36:51;27.40;;;12.30;;
71080;SDS011;58740;50.672;18.690;2022-12-07T16:39:30;28.90;;;14.10;;
71080;SDS011;58740;50.672;18.690;2022-12-07T16:41:59;30.20;;;16.50;;